Time;durP1;ratioP1;P1;durP2;ratioP2;P2;SDS_P1;SDS_P2;PMS_P1;PMS_P2;Temp;Humidity;BMP_temperature;BMP_pressure;BME280_temperature;BME280_humidity;BME280_pressure;Samples;Min_cycle;Max_cycle;Signal;HPM_P1;HPM_P2
2022/11/14 00:02:09;;;;;;;;;;;6.60;99.90;;;;;;5043334;28;20027;-70
2022/11/14 00:04:34;;;;;;;;;;;6.70;99.90;;;;;;5067611;28;19920;-70
2022/11/14 00:07:00;;;;;;;;;;;6.60;99.90;;;;;;5049335;28;19932;-70
2022/11/14 00:09:26;;;;;;;;;;;6.70;99.90;;;;;;5034477;28;20406;-70
2022/11/14 00:11:52;;;;;;;;;;;6.60;99.90;;;;;;5060323;28;20381;-70
2022/11/14 00:14:17;;;;;;;;;;;6.70;99.90;;;;;;5050324;28;19921;-70
2022/11/14 00:16:43;;;;;;;;;;;6.80;99.90;;;;;;5057856;28;20377;-70
2022/11/14 00:19:08;;;;;;;;;;;6.80;99.90;;;;;;5052006;28;19925;-70
2022/11/14 00:21:34;;;;;;;;;;;6.90;99.90;;;;;;5034662;28;19921;-70
2022/11/14 00:23:59;;;;;;;;;;;6.90;99.90;;;;;;5050627;28;19990;-70
2022/11/14 00:26:24;;;;;;;;;;;6.80;99.90;;;;;;5049665;28;19956;-70
2022/11/14 00:28:50;;;;;;;;;;;6.80;99.90;;;;;;5037721;28;20420;-70
2022/11/14 00:31:15;;;;;;;;;;;6.80;99.90;;;;;;5046314;28;19974;-70
2022/11/14 00:33:41;;;;;;;;;;;6.80;99.90;;;;;;5048552;28;19928;-70
2022/11/14 00:36:06;;;;;;;;;;;6.80;99.90;;;;;;5050548;28;19950;-70
2022/11/14 00:38:32;;;;;;;;;;;6.80;99.90;;;;;;5053502;28;20404;-70
2022/11/14 00:40:57;;;;;;;;;;;6.80;99.90;;;;;;5048768;28;19921;-70
2022/11/14 00:43:23;;;;;;;;;;;6.90;99.90;;;;;;5049894;28;19929;-70
2022/11/14 00:45:48;;;;;;;;;;;6.90;99.90;;;;;;5051513;28;19960;-70
2022/11/14 00:48:15;;;;;;;;;;;6.90;99.90;;;;;;5065715;28;19925;-70
2022/11/14 00:50:41;;;;;;;;;;;7.00;99.90;;;;;;5067585;28;19970;-70
2022/11/14 00:53:07;;;;;;;;;;;6.90;99.90;;;;;;5051089;28;20003;-70
2022/11/14 00:55:32;;;;;;;;;;;6.90;99.90;;;;;;5050108;28;20001;-70
2022/11/14 00:57:58;;;;;;;;;;;6.90;99.90;;;;;;5047373;28;19928;-70
2022/11/14 01:00:23;;;;;;;;;;;6.90;99.90;;;;;;5030601;28;19929;-70
2022/11/14 01:02:49;;;;;;;;;;;6.90;99.90;;;;;;5051502;28;20384;-70
2022/11/14 01:05:14;;;;;;;;;;;6.90;99.90;;;;;;5050246;28;19928;-70
2022/11/14 01:07:40;;;;;;;;;;;7.00;99.90;;;;;;5053571;22;19932;-70
2022/11/14 01:10:05;;;;;;;;;;;7.00;99.90;;;;;;5066464;28;19974;-70
2022/11/14 01:12:32;;;;;;;;;;;6.90;99.90;;;;;;5033219;28;20339;-70
2022/11/14 01:14:58;;;;;;;;;;;6.90;99.90;;;;;;5055109;28;20340;-70
2022/11/14 01:17:23;;;;;;;;;;;6.90;99.90;;;;;;5038408;28;19921;-70
2022/11/14 01:19:49;;;;;;;;;;;6.90;99.90;;;;;;5053687;28;19995;-70
2022/11/14 01:22:14;;;;;;;;;;;6.90;99.90;;;;;;5040625;28;19935;-70
2022/11/14 01:24:39;;;;;;;;;;;6.80;99.90;;;;;;5035812;28;19921;-70
2022/11/14 01:27:05;;;;;;;;;;;6.80;99.90;;;;;;5055049;28;20412;-70
2022/11/14 01:29:30;;;;;;;;;;;6.80;99.90;;;;;;5049508;28;19924;-70
2022/11/14 01:31:56;;;;;;;;;;;6.70;99.90;;;;;;5048370;28;19920;-70
2022/11/14 01:34:22;;;;;;;;;;;6.60;99.90;;;;;;5052543;28;19925;-70
2022/11/14 01:36:47;;;;;;;;;;;6.60;99.90;;;;;;5038509;28;20329;-70
2022/11/14 01:39:13;;;;;;;;;;;6.60;99.90;;;;;;5055002;28;20011;-70
2022/11/14 01:41:38;;;;;;;;;;;6.50;99.90;;;;;;5046861;28;19920;-70
2022/11/14 01:44:10;;;;;;;;;;;6.40;99.90;;;;;;5064573;28;19932;-70
2022/11/14 01:46:37;;;;;;;;;;;6.40;99.90;;;;;;5058711;28;20354;-70
2022/11/14 01:49:12;;;;;;;;;;;6.40;99.90;;;;;;5063321;28;20355;-70
2022/11/14 01:51:39;;;;;;;;;;;6.40;99.90;;;;;;5049273;28;19921;-70
2022/11/14 01:54:12;;;;;;;;;;;6.50;99.90;;;;;;5050816;28;19924;-71
2022/11/14 01:56:51;;;;;;;;;;;6.40;99.90;;;;;;5052931;28;19952;-70
2022/11/14 01:59:19;;;;;;;;;;;6.30;99.90;;;;;;5052056;28;19921;-70
2022/11/14 02:01:46;;;;;;;;;;;6.30;99.90;;;;;;5051391;28;20262;-70
2022/11/14 02:04:14;;;;;;;;;;;6.30;99.90;;;;;;5062117;28;19924;-70
2022/11/14 02:06:39;;;;;;;;;;;6.30;99.90;;;;;;5052183;28;20027;-70
2022/11/14 02:09:06;;;;;;;;;;;6.30;99.90;;;;;;5048285;28;20003;-71
2022/11/14 02:11:33;;;;;;;;;;;6.30;99.90;;;;;;5052899;28;19924;-70
2022/11/14 02:13:59;;;;;;;;;;;6.40;99.90;;;;;;5051863;28;19959;-70
2022/11/14 02:16:25;;;;;;;;;;;6.40;99.90;;;;;;5055578;28;19952;-70
2022/11/14 02:18:50;;;;;;;;;;;6.30;99.90;;;;;;5053500;28;19920;-70
2022/11/14 02:21:16;;;;;;;;;;;6.40;99.90;;;;;;5052418;28;20319;-70
2022/11/14 02:23:41;;;;;;;;;;;6.40;99.90;;;;;;5047783;28;19975;-70
2022/11/14 02:26:07;;;;;;;;;;;6.40;99.90;;;;;;5048675;28;20485;-70
2022/11/14 02:28:32;;;;;;;;;;;6.40;99.90;;;;;;5049967;28;19968;-70
2022/11/14 02:30:58;;;;;;;;;;;6.40;99.90;;;;;;5056728;28;19925;-70
2022/11/14 02:33:23;;;;;;;;;;;6.40;99.90;;;;;;5047178;28;20278;-70
2022/11/14 02:35:49;;;;;;;;;;;6.40;99.90;;;;;;5054706;28;19927;-70
2022/11/14 02:38:14;;;;;;;;;;;6.50;99.90;;;;;;5052192;28;19925;-70
2022/11/14 02:40:40;;;;;;;;;;;6.50;99.90;;;;;;5045934;28;19928;-70
2022/11/14 02:43:05;;;;;;;;;;;6.50;99.90;;;;;;5051393;28;19921;-70
2022/11/14 02:45:31;;;;;;;;;;;6.50;99.90;;;;;;5053197;28;19921;-70
2022/11/14 02:47:56;;;;;;;;;;;6.50;99.90;;;;;;5052625;28;20350;-70
2022/11/14 02:50:22;;;;;;;;;;;6.50;99.90;;;;;;5052235;28;19960;-70
2022/11/14 02:52:47;;;;;;;;;;;6.50;99.90;;;;;;5041542;28;19928;-70
2022/11/14 02:55:13;;;;;;;;;;;6.50;99.90;;;;;;5047178;28;19928;-70
2022/11/14 02:57:38;;;;;;;;;;;6.50;99.90;;;;;;5045234;28;19921;-70
2022/11/14 03:00:04;;;;;;;;;;;6.50;99.90;;;;;;5046017;28;20437;-70
2022/11/14 03:02:29;;;;;;;;;;;6.60;99.90;;;;;;5047149;28;19925;-70
2022/11/14 03:04:55;;;;;;;;;;;6.60;99.90;;;;;;5047477;28;19943;-70
2022/11/14 03:07:20;;;;;;;;;;;6.60;99.90;;;;;;5060030;28;19929;-70
2022/11/14 03:09:46;;;;;;;;;;;6.60;99.90;;;;;;5061014;28;19925;-70
2022/11/14 03:12:15;;;;;;;;;;;6.50;99.90;;;;;;5044417;28;19936;-70
2022/11/14 03:14:40;;;;;;;;;;;6.50;99.90;;;;;;5048136;28;19925;-69
2022/11/14 03:17:06;;;;;;;;;;;6.60;99.90;;;;;;5049391;28;19928;-69
2022/11/14 03:19:31;;;;;;;;;;;6.60;99.90;;;;;;5051039;28;20370;-69
2022/11/14 03:21:57;;;;;;;;;;;6.60;99.90;;;;;;5055045;28;19921;-69
2022/11/14 03:24:22;;;;;;;;;;;6.60;99.90;;;;;;5047078;28;19935;-69
2022/11/14 03:26:47;;;;;;;;;;;6.60;99.90;;;;;;5040640;28;20259;-69
2022/11/14 03:29:13;;;;;;;;;;;6.60;99.90;;;;;;5049927;28;19921;-69
2022/11/14 03:31:38;;;;;;;;;;;6.60;99.90;;;;;;5041484;28;19968;-69
2022/11/14 03:34:04;;;;;;;;;;;6.60;99.90;;;;;;5048961;28;19929;-69
2022/11/14 03:36:29;;;;;;;;;;;6.60;99.90;;;;;;5046569;28;19983;-70
2022/11/14 03:38:55;;;;;;;;;;;6.60;99.90;;;;;;5042174;28;19947;-70
2022/11/14 03:41:20;;;;;;;;;;;6.60;99.90;;;;;;5048927;28;20015;-70
2022/11/14 03:43:46;;;;;;;;;;;6.50;99.90;;;;;;5047391;28;19928;-70
2022/11/14 03:46:11;;;;;;;;;;;6.60;99.90;;;;;;5046600;28;19921;-70
2022/11/14 03:48:37;;;;;;;;;;;6.60;99.90;;;;;;5056624;28;19929;-70
2022/11/14 03:51:02;;;;;;;;;;;6.60;99.90;;;;;;5046814;28;19932;-70
2022/11/14 03:53:28;;;;;;;;;;;6.60;99.90;;;;;;5049735;28;20445;-70
2022/11/14 03:55:53;;;;;;;;;;;6.60;99.90;;;;;;5045023;28;19925;-70
2022/11/14 03:58:19;;;;;;;;;;;6.60;99.90;;;;;;5050893;28;19961;-70
2022/11/14 04:00:44;;;;;;;;;;;6.60;99.90;;;;;;5038371;28;20578;-70
2022/11/14 04:03:10;;;;;;;;;;;6.60;99.90;;;;;;5048945;28;19920;-70
2022/11/14 04:05:35;;;;;;;;;;;6.60;99.90;;;;;;5049707;28;20007;-70
2022/11/14 04:08:03;;;;;;;;;;;6.60;99.90;;;;;;5039772;28;19925;-70
2022/11/14 04:10:28;;;;;;;;;;;6.60;99.90;;;;;;5041973;28;20278;-70
2022/11/14 04:12:54;;;;;;;;;;;6.60;99.90;;;;;;5038771;28;19924;-70
2022/11/14 04:15:19;;;;;;;;;;;6.60;99.90;;;;;;5053166;28;20051;-70
2022/11/14 04:17:45;;;;;;;;;;;6.60;99.90;;;;;;5033010;28;19936;-70
2022/11/14 04:20:12;;;;;;;;;;;6.60;99.90;;;;;;5047789;28;20007;-70
2022/11/14 04:22:37;;;;;;;;;;;6.60;99.90;;;;;;5048806;28;19929;-70
2022/11/14 04:25:03;;;;;;;;;;;6.60;99.90;;;;;;5060308;28;20019;-70
2022/11/14 04:27:29;;;;;;;;;;;6.60;99.90;;;;;;5043331;28;19925;-70
2022/11/14 04:29:54;;;;;;;;;;;6.60;99.90;;;;;;5045664;28;19935;-70
2022/11/14 04:32:20;;;;;;;;;;;6.60;99.90;;;;;;5043031;28;20011;-70
2022/11/14 04:34:45;;;;;;;;;;;6.60;99.90;;;;;;5040014;28;20623;-70
2022/11/14 04:37:11;;;;;;;;;;;6.60;99.90;;;;;;5046326;28;20115;-70
2022/11/14 04:39:36;;;;;;;;;;;6.50;99.90;;;;;;5048418;28;19920;-70
2022/11/14 04:42:02;;;;;;;;;;;6.60;99.90;;;;;;5063918;28;20362;-70
2022/11/14 04:44:27;;;;;;;;;;;6.60;99.90;;;;;;5045319;28;19971;-70
2022/11/14 04:46:53;;;;;;;;;;;6.70;99.90;;;;;;5046162;28;19925;-70
2022/11/14 04:49:18;;;;;;;;;;;6.60;99.90;;;;;;5043220;28;20379;-70
2022/11/14 04:51:44;;;;;;;;;;;6.60;99.90;;;;;;5044923;28;19947;-70
2022/11/14 04:54:09;;;;;;;;;;;6.60;99.90;;;;;;5040655;28;20003;-70
2022/11/14 04:56:35;;;;;;;;;;;6.60;99.90;;;;;;5052630;28;19935;-70
2022/11/14 04:59:00;;;;;;;;;;;6.60;99.90;;;;;;5044228;28;19943;-70
2022/11/14 05:01:26;;;;;;;;;;;6.60;99.90;;;;;;5051266;28;19921;-70
2022/11/14 05:03:51;;;;;;;;;;;6.60;99.90;;;;;;5046002;28;19956;-70
2022/11/14 05:06:17;;;;;;;;;;;6.50;99.90;;;;;;5059325;28;20359;-70
2022/11/14 05:08:42;;;;;;;;;;;6.50;99.90;;;;;;5059217;28;19924;-70
2022/11/14 05:11:12;;;;;;;;;;;6.50;99.90;;;;;;5050025;28;19948;-70
2022/11/14 05:13:38;;;;;;;;;;;6.50;99.90;;;;;;5052443;28;19920;-70
2022/11/14 05:16:03;;;;;;;;;;;6.50;99.90;;;;;;5046989;28;20314;-70
2022/11/14 05:18:29;;;;;;;;;;;6.50;99.90;;;;;;5043515;28;19966;-69
2022/11/14 05:20:56;;;;;;;;;;;6.50;99.90;;;;;;5034023;28;19964;-69
2022/11/14 05:23:22;;;;;;;;;;;6.50;99.90;;;;;;5038700;28;19928;-69
2022/11/14 05:26:01;;;;;;;;;;;6.40;99.90;;;;;;5047726;28;19920;-69
2022/11/14 05:28:26;;;;;;;;;;;6.50;99.90;;;;;;5050759;28;20023;-69
2022/11/14 05:30:52;;;;;;;;;;;6.40;99.90;;;;;;5043474;28;20008;-69
2022/11/14 05:33:17;;;;;;;;;;;6.40;99.90;;;;;;5048121;28;20021;-69
2022/11/14 05:35:42;;;;;;;;;;;6.50;99.90;;;;;;5053868;28;19921;-69
2022/11/14 05:38:08;;;;;;;;;;;6.40;99.90;;;;;;5043144;28;19921;-70
2022/11/14 05:40:33;;;;;;;;;;;6.40;99.90;;;;;;5044243;28;19920;-70
2022/11/14 05:42:59;;;;;;;;;;;6.50;99.90;;;;;;5044599;28;19940;-70
2022/11/14 05:45:24;;;;;;;;;;;6.40;99.90;;;;;;5045825;28;19972;-70
2022/11/14 05:47:52;;;;;;;;;;;6.40;99.90;;;;;;5051333;28;20437;-70
2022/11/14 05:50:18;;;;;;;;;;;6.40;99.90;;;;;;5042433;28;20679;-70
2022/11/14 05:52:43;;;;;;;;;;;6.40;99.90;;;;;;5042671;28;19921;-70
2022/11/14 05:55:09;;;;;;;;;;;6.40;99.90;;;;;;5043612;28;19956;-70
2022/11/14 05:57:34;;;;;;;;;;;6.40;99.90;;;;;;5052473;28;19925;-70
2022/11/14 06:00:03;;;;;;;;;;;6.40;99.90;;;;;;5041225;28;20009;-70
2022/11/14 06:02:29;;;;;;;;;;;6.40;99.90;;;;;;5050618;28;20007;-70
2022/11/14 06:04:54;;;;;;;;;;;6.40;99.90;;;;;;5048492;28;19930;-70
2022/11/14 06:07:20;;;;;;;;;;;6.40;99.90;;;;;;5044064;28;19928;-70
2022/11/14 06:09:45;;;;;;;;;;;6.40;99.90;;;;;;5047233;28;20019;-70
2022/11/14 06:12:10;;;;;;;;;;;6.30;99.90;;;;;;5047869;28;19921;-70
2022/11/14 06:14:36;;;;;;;;;;;6.30;99.90;;;;;;5036964;28;19963;-70
2022/11/14 06:17:01;;;;;;;;;;;6.30;99.90;;;;;;5052748;28;19921;-70
2022/11/14 06:19:27;;;;;;;;;;;6.20;99.90;;;;;;5039594;28;20252;-70
2022/11/14 06:21:52;;;;;;;;;;;6.20;99.90;;;;;;5064027;28;19929;-70
2022/11/14 06:24:18;;;;;;;;;;;6.20;99.90;;;;;;5049593;28;20271;-70
2022/11/14 06:26:43;;;;;;;;;;;6.20;99.90;;;;;;5049009;28;19927;-70
2022/11/14 06:29:09;;;;;;;;;;;6.20;99.90;;;;;;5050963;28;19975;-70
2022/11/14 06:31:35;;;;;;;;;;;6.20;99.90;;;;;;5047225;28;19935;-70
2022/11/14 06:34:00;;;;;;;;;;;6.20;99.90;;;;;;5050106;28;19921;-70
2022/11/14 06:36:25;;;;;;;;;;;6.20;99.90;;;;;;5066198;28;19924;-70
2022/11/14 06:38:51;;;;;;;;;;;6.20;99.90;;;;;;5044350;28;19944;-70
2022/11/14 06:41:18;;;;;;;;;;;6.20;99.90;;;;;;5054535;28;20263;-70
2022/11/14 06:43:44;;;;;;;;;;;6.20;99.90;;;;;;5046870;28;19924;-70
2022/11/14 06:46:11;;;;;;;;;;;6.20;99.90;;;;;;5052402;28;19966;-70
2022/11/14 06:48:37;;;;;;;;;;;6.20;99.90;;;;;;5049485;28;19954;-70
2022/11/14 06:51:03;;;;;;;;;;;6.20;99.90;;;;;;5046163;28;20307;-70
2022/11/14 06:53:30;;;;;;;;;;;6.20;99.90;;;;;;5050499;28;19921;-70
2022/11/14 06:55:56;;;;;;;;;;;6.20;99.90;;;;;;5063109;28;20278;-70
2022/11/14 06:58:24;;;;;;;;;;;6.10;99.90;;;;;;5051020;28;19925;-71
2022/11/14 07:00:49;;;;;;;;;;;6.20;99.90;;;;;;5050941;28;19920;-70
2022/11/14 07:03:15;;;;;;;;;;;6.20;99.90;;;;;;5049554;28;19921;-70
2022/11/14 07:05:40;;;;;;;;;;;6.20;99.90;;;;;;5040457;28;19961;-71
2022/11/14 07:08:05;;;;;;;;;;;6.20;99.90;;;;;;5036215;28;19932;-68
2022/11/14 07:10:31;;;;;;;;;;;6.10;99.90;;;;;;5041311;28;19927;-68
2022/11/14 07:12:56;;;;;;;;;;;6.10;99.90;;;;;;5046132;28;19951;-68
2022/11/14 07:15:22;;;;;;;;;;;6.10;99.90;;;;;;5041218;28;19978;-68
2022/11/14 07:17:47;;;;;;;;;;;6.10;99.90;;;;;;5043365;28;20501;-68
2022/11/14 07:20:14;;;;;;;;;;;6.10;99.90;;;;;;5043129;28;19970;-68
2022/11/14 07:22:39;;;;;;;;;;;6.10;99.90;;;;;;5040273;28;19921;-69
2022/11/14 07:25:05;;;;;;;;;;;6.10;99.90;;;;;;5028455;28;19927;-68
2022/11/14 07:27:30;;;;;;;;;;;6.10;99.90;;;;;;5047638;28;20333;-68
2022/11/14 07:29:56;;;;;;;;;;;6.10;99.90;;;;;;5046010;28;19971;-68
2022/11/14 07:32:21;;;;;;;;;;;6.00;99.90;;;;;;5041225;28;19924;-68
2022/11/14 07:34:47;;;;;;;;;;;6.00;99.90;;;;;;5033453;28;19925;-68
2022/11/14 07:37:12;;;;;;;;;;;6.00;99.90;;;;;;5035869;28;19921;-68
2022/11/14 07:39:38;;;;;;;;;;;6.00;99.90;;;;;;5036001;28;19964;-68
2022/11/14 07:42:03;;;;;;;;;;;5.90;99.90;;;;;;5035720;28;20510;-68
2022/11/14 07:44:28;;;;;;;;;;;6.00;99.90;;;;;;5044226;28;20007;-68
2022/11/14 07:46:54;;;;;;;;;;;6.00;99.90;;;;;;5034989;28;19932;-68
2022/11/14 07:49:19;;;;;;;;;;;6.00;99.90;;;;;;5032681;28;20432;-68
2022/11/14 07:51:45;;;;;;;;;;;6.00;99.90;;;;;;5042357;28;19921;-68
2022/11/14 07:54:10;;;;;;;;;;;6.00;99.90;;;;;;5045389;28;19921;-67
2022/11/14 07:56:36;;;;;;;;;;;6.00;99.90;;;;;;5041042;28;20003;-68
2022/11/14 07:59:01;;;;;;;;;;;6.10;99.90;;;;;;5042521;28;20023;-68
2022/11/14 08:01:27;;;;;;;;;;;6.10;99.90;;;;;;5049346;28;20393;-68
2022/11/14 08:03:52;;;;;;;;;;;6.10;99.90;;;;;;5042359;28;19970;-68
2022/11/14 08:06:18;;;;;;;;;;;6.10;99.90;;;;;;5048480;28;19928;-68
2022/11/14 08:08:43;;;;;;;;;;;6.10;99.90;;;;;;5043680;28;19947;-68
2022/11/14 08:11:09;;;;;;;;;;;6.10;99.90;;;;;;5036724;28;19920;-68
2022/11/14 08:13:34;;;;;;;;;;;6.10;99.90;;;;;;5033044;28;19932;-68
2022/11/14 08:16:07;;;;;;;;;;;6.10;99.90;;;;;;5037520;28;19960;-67
2022/11/14 08:18:33;;;;;;;;;;;6.20;99.90;;;;;;5045295;28;19920;-67
2022/11/14 08:21:02;;;;;;;;;;;6.20;99.90;;;;;;5034686;28;19966;-68
2022/11/14 08:23:27;;;;;;;;;;;6.20;99.90;;;;;;5050058;28;19925;-68
2022/11/14 08:25:52;;;;;;;;;;;6.20;99.90;;;;;;5031088;28;20307;-68
2022/11/14 08:28:18;;;;;;;;;;;6.30;99.90;;;;;;5048605;28;19929;-68
2022/11/14 08:30:43;;;;;;;;;;;6.30;99.90;;;;;;5048629;28;19924;-68
2022/11/14 08:33:09;;;;;;;;;;;6.30;99.90;;;;;;5040074;28;20686;-68
2022/11/14 08:35:34;;;;;;;;;;;6.20;99.90;;;;;;5047850;28;19924;-68
2022/11/14 08:38:00;;;;;;;;;;;6.30;99.90;;;;;;5050851;28;19921;-68
2022/11/14 08:40:26;;;;;;;;;;;6.30;99.90;;;;;;5048680;28;20354;-68
2022/11/14 08:42:56;;;;;;;;;;;6.30;99.90;;;;;;5055320;28;19968;-68
2022/11/14 08:45:22;;;;;;;;;;;6.30;99.90;;;;;;5057247;28;19929;-68
2022/11/14 08:47:51;;;;;;;;;;;6.40;99.90;;;;;;5050527;28;19932;-67
2022/11/14 08:50:16;;;;;;;;;;;6.40;99.90;;;;;;5063350;28;19924;-68
2022/11/14 08:52:42;;;;;;;;;;;6.50;99.90;;;;;;5042424;28;19932;-68
2022/11/14 08:55:07;;;;;;;;;;;6.50;99.90;;;;;;5039378;28;19921;-68
2022/11/14 08:57:33;;;;;;;;;;;6.50;99.90;;;;;;5039609;28;19921;-68
2022/11/14 08:59:58;;;;;;;;;;;6.50;99.90;;;;;;5040815;28;20432;-68
2022/11/14 09:02:24;;;;;;;;;;;6.50;99.90;;;;;;5039968;28;19991;-67
2022/11/14 09:04:49;;;;;;;;;;;6.50;99.90;;;;;;5056491;28;19928;-68
2022/11/14 09:07:15;;;;;;;;;;;6.50;99.90;;;;;;5044144;28;19979;-68
2022/11/14 09:09:40;;;;;;;;;;;6.50;99.90;;;;;;5047486;28;19944;-68
2022/11/14 09:12:06;;;;;;;;;;;6.50;99.90;;;;;;5025443;28;19929;-68
2022/11/14 09:14:31;;;;;;;;;;;6.50;99.90;;;;;;5050001;28;20016;-69
2022/11/14 09:16:57;;;;;;;;;;;6.50;99.90;;;;;;5026518;28;20014;-69
2022/11/14 09:19:22;;;;;;;;;;;6.60;99.90;;;;;;5055403;28;19928;-69
2022/11/14 09:21:48;;;;;;;;;;;6.60;99.90;;;;;;5044849;28;20464;-70
2022/11/14 09:24:13;;;;;;;;;;;6.60;99.90;;;;;;5044248;28;20423;-71
2022/11/14 09:26:39;;;;;;;;;;;6.70;99.90;;;;;;5046452;28;19944;-71
2022/11/14 09:29:05;;;;;;;;;;;6.80;99.90;;;;;;5058439;28;19982;-71
2022/11/14 09:31:30;;;;;;;;;;;6.80;99.90;;;;;;5064702;28;19966;-70
2022/11/14 09:33:56;;;;;;;;;;;6.90;99.90;;;;;;5040160;28;19952;-71
2022/11/14 09:36:22;;;;;;;;;;;7.00;99.90;;;;;;5049405;28;20043;-71
2022/11/14 09:38:49;;;;;;;;;;;7.00;99.90;;;;;;5052910;28;20328;-71
2022/11/14 09:41:21;;;;;;;;;;;7.10;99.90;;;;;;5049965;28;20341;-71
2022/11/14 09:43:56;;;;;;;;;;;7.20;99.90;;;;;;5051923;28;19991;-71
2022/11/14 09:46:23;;;;;;;;;;;7.20;99.90;;;;;;5039446;28;19927;-71
2022/11/14 09:48:50;;;;;;;;;;;7.10;99.90;;;;;;5068121;28;19951;-71
2022/11/14 09:51:18;;;;;;;;;;;7.10;99.90;;;;;;5063642;28;19931;-71
2022/11/14 09:54:05;;;;;;;;;;;7.10;99.90;;;;;;5051801;28;20008;-71
2022/11/14 09:56:31;;;;;;;;;;;6.90;99.90;;;;;;5035888;28;20066;-70
2022/11/14 09:58:56;;;;;;;;;;;7.00;99.90;;;;;;5049367;28;19921;-70
2022/11/14 10:01:39;;;;;;;;;;;7.00;99.90;;;;;;5059454;28;19921;-70
2022/11/14 10:04:16;;;;;;;;;;;7.00;99.90;;;;;;5042411;28;19925;-70
2022/11/14 10:06:45;;;;;;;;;;;7.00;99.90;;;;;;5060743;28;20413;-70
2022/11/14 10:09:10;;;;;;;;;;;7.00;99.90;;;;;;5043878;28;19925;-70
2022/11/14 10:11:45;;;;;;;;;;;6.90;99.90;;;;;;5034577;28;19921;-70
2022/11/14 10:14:43;;;;;;;;;;;7.10;99.90;;;;;;5046125;28;19921;-71
2022/11/14 10:17:22;;;;;;;;;;;7.10;99.90;;;;;;5004565;28;20015;-71
2022/11/14 10:20:01;;;;;;;;;;;7.20;99.90;;;;;;5033986;28;19927;-71
2022/11/14 10:22:33;;;;;;;;;;;7.30;99.90;;;;;;5065372;28;20274;-71
2022/11/14 10:24:59;;;;;;;;;;;7.30;99.90;;;;;;5035364;28;19921;-72
2022/11/14 10:27:50;;;;;;;;;;;7.40;99.90;;;;;;5041480;28;19955;-70
2022/11/14 10:30:17;;;;;;;;;;;7.50;99.90;;;;;;4998709;28;20034;-71
2022/11/14 10:32:54;;;;;;;;;;;7.50;99.90;;;;;;5044978;28;19968;-70
2022/11/14 10:35:20;;;;;;;;;;;7.50;99.90;;;;;;5050282;28;19936;-69
2022/11/14 10:37:52;;;;;;;;;;;7.60;99.90;;;;;;5046729;28;19928;-69
2022/11/14 10:40:20;;;;;;;;;;;7.70;99.90;;;;;;5039347;28;19949;-69
2022/11/14 10:42:47;;;;;;;;;;;7.70;99.90;;;;;;5041087;28;19944;-69
2022/11/14 10:45:16;;;;;;;;;;;7.70;99.90;;;;;;5063558;28;19920;-69
2022/11/14 10:47:48;;;;;;;;;;;7.80;99.90;;;;;;5052368;28;19928;-69
2022/11/14 10:50:17;;;;;;;;;;;7.80;99.90;;;;;;5044332;28;19925;-69
2022/11/14 10:52:43;;;;;;;;;;;7.90;99.90;;;;;;5030976;28;19924;-70
2022/11/14 10:55:16;;;;;;;;;;;8.00;99.90;;;;;;5041647;28;19932;-70
2022/11/14 10:57:43;;;;;;;;;;;8.00;99.90;;;;;;5046286;28;19971;-69
2022/11/14 11:00:14;;;;;;;;;;;8.10;99.90;;;;;;5049345;28;19920;-69
2022/11/14 11:02:47;;;;;;;;;;;8.00;99.90;;;;;;5042774;28;20370;-69
2022/11/14 11:05:14;;;;;;;;;;;8.20;99.90;;;;;;5058769;28;19928;-70
2022/11/14 11:13:26;;;;;;;;;;;8.10;99.90;;;;;;5056520;28;19925;-69
2022/11/14 11:15:54;;;;;;;;;;;8.10;99.90;;;;;;5049678;28;20009;-69
2022/11/14 11:18:26;;;;;;;;;;;8.00;99.90;;;;;;5057100;28;20404;-69
2022/11/14 11:21:00;;;;;;;;;;;8.00;99.90;;;;;;5045981;28;20362;-69
2022/11/14 11:23:26;;;;;;;;;;;7.90;99.90;;;;;;5055887;28;19921;-70
2022/11/14 11:26:00;;;;;;;;;;;7.90;99.90;;;;;;5051509;28;19925;-70
2022/11/14 11:28:27;;;;;;;;;;;7.90;99.90;;;;;;5041589;28;20379;-70
2022/11/14 11:30:59;;;;;;;;;;;7.90;99.90;;;;;;5051128;28;19925;-70
2022/11/14 11:33:28;;;;;;;;;;;8.00;99.90;;;;;;5048037;28;20349;-69
2022/11/14 11:35:59;;;;;;;;;;;8.10;99.90;;;;;;5043382;28;19928;-69
2022/11/14 11:38:26;;;;;;;;;;;8.00;99.90;;;;;;5048342;28;20409;-69
2022/11/14 11:40:57;;;;;;;;;;;8.00;99.90;;;;;;5049468;28;20019;-69
2022/11/14 11:43:30;;;;;;;;;;;8.00;99.90;;;;;;5048374;28;20390;-69
2022/11/14 11:45:58;;;;;;;;;;;8.10;99.90;;;;;;5045567;28;19925;-69
2022/11/14 11:48:26;;;;;;;;;;;8.10;99.90;;;;;;5049534;28;20023;-70
2022/11/14 11:50:52;;;;;;;;;;;8.10;99.90;;;;;;5047321;28;19971;-70
2022/11/14 11:53:50;;;;;;;;;;;8.10;99.90;;;;;;5049511;28;19968;-70
2022/11/14 11:56:21;;;;;;;;;;;8.10;99.90;;;;;;5028745;28;20011;-70
2022/11/14 11:58:53;;;;;;;;;;;8.10;99.90;;;;;;5043647;28;19932;-69
2022/11/14 12:01:19;;;;;;;;;;;8.10;99.90;;;;;;5047738;28;19921;-69
2022/11/14 12:03:50;;;;;;;;;;;8.10;99.90;;;;;;5048208;28;20000;-69
2022/11/14 12:06:19;;;;;;;;;;;8.10;99.90;;;;;;5027678;28;20041;-69
2022/11/14 12:08:44;;;;;;;;;;;8.20;99.90;;;;;;5047931;28;19925;-69
2022/11/14 12:11:13;;;;;;;;;;;8.20;99.90;;;;;;5046185;28;19920;-69
2022/11/14 12:13:59;;;;;;;;;;;8.30;99.90;;;;;;5036684;28;19925;-69
2022/11/14 12:16:31;;;;;;;;;;;8.30;99.90;;;;;;5028311;28;20012;-69
2022/11/14 12:19:15;;;;;;;;;;;8.30;99.90;;;;;;5051313;28;19924;-69
2022/11/14 12:21:58;;;;;;;;;;;8.30;99.90;;;;;;5048577;28;20385;-69
2022/11/14 12:24:42;;;;;;;;;;;8.30;99.90;;;;;;5031812;28;19924;-69
2022/11/14 12:27:26;;;;;;;;;;;8.40;99.90;;;;;;5041784;28;20015;-69
2022/11/14 12:30:12;;;;;;;;;;;8.40;99.90;;;;;;5053603;28;19921;-69
2022/11/14 12:32:47;;;;;;;;;;;8.50;99.90;;;;;;5045599;28;20290;-69
2022/11/14 12:35:19;;;;;;;;;;;8.50;99.90;;;;;;5050002;28;20370;-69
2022/11/14 12:37:46;;;;;;;;;;;8.50;99.90;;;;;;5045201;28;19933;-69
2022/11/14 12:40:24;;;;;;;;;;;8.60;99.90;;;;;;5039068;28;19921;-69
2022/11/14 12:42:49;;;;;;;;;;;8.60;99.90;;;;;;5052098;28;19927;-69
2022/11/14 12:45:34;;;;;;;;;;;8.60;99.90;;;;;;5061083;28;19929;-69
2022/11/14 12:48:18;;;;;;;;;;;8.60;99.90;;;;;;5058935;28;20278;-69
2022/11/14 12:50:43;;;;;;;;;;;8.60;99.90;;;;;;5049102;28;19920;-69
2022/11/14 12:53:35;;;;;;;;;;;8.60;99.90;;;;;;5042380;28;19921;-69
2022/11/14 12:56:04;;;;;;;;;;;8.60;99.90;;;;;;5039052;28;19948;-69
2022/11/14 12:58:46;;;;;;;;;;;8.60;99.90;;;;;;5041170;28;19933;-69
2022/11/14 13:01:20;;;;;;;;;;;8.60;99.90;;;;;;5055909;28;19924;-69
2022/11/14 13:03:46;;;;;;;;;;;8.60;99.90;;;;;;5062072;28;19921;-68
2022/11/14 13:06:34;;;;;;;;;;;8.70;99.90;;;;;;5051301;28;19936;-68
2022/11/14 13:09:14;;;;;;;;;;;8.70;99.90;;;;;;5048205;28;20368;-68
2022/11/14 13:22:42;;;;;;;;;;;8.80;99.90;;;;;;5070701;22;19925;-72
2022/11/14 13:25:18;;;;;;;;;;;8.90;99.90;;;;;;5078032;28;19935;-71
2022/11/14 13:27:43;;;;;;;;;;;8.90;99.90;;;;;;5043810;28;19973;-71
2022/11/14 13:30:09;;;;;;;;;;;8.90;99.90;;;;;;5051360;28;19936;-72
2022/11/14 13:32:41;;;;;;;;;;;8.90;99.90;;;;;;5054388;28;19939;-69
2022/11/14 13:35:17;;;;;;;;;;;8.90;99.90;;;;;;5053883;28;19929;-69
2022/11/14 13:37:42;;;;;;;;;;;8.90;99.90;;;;;;5060908;28;19927;-69
2022/11/14 13:40:27;;;;;;;;;;;8.80;99.90;;;;;;5051227;28;20272;-69
2022/11/14 13:43:08;;;;;;;;;;;8.80;99.90;;;;;;5054508;28;19920;-70
2022/11/14 13:45:43;;;;;;;;;;;8.80;99.90;;;;;;5066190;28;19935;-69
2022/11/14 13:48:11;;;;;;;;;;;8.80;99.90;;;;;;5053442;28;19979;-69
2022/11/14 13:50:39;;;;;;;;;;;8.70;99.90;;;;;;5051549;28;19929;-69
2022/11/14 13:53:12;;;;;;;;;;;8.70;99.90;;;;;;5053815;28;20289;-69
2022/11/14 13:55:52;;;;;;;;;;;8.70;99.90;;;;;;5086448;28;19930;-68
2022/11/14 13:58:21;;;;;;;;;;;8.70;99.90;;;;;;5082542;28;20015;-69
2022/11/14 14:00:53;;;;;;;;;;;8.70;99.90;;;;;;5057020;28;19986;-69
2022/11/14 14:03:25;;;;;;;;;;;8.70;99.90;;;;;;5058596;28;19921;-68
2022/11/14 14:06:10;;;;;;;;;;;8.70;99.90;;;;;;5057696;28;20411;-69
2022/11/14 14:08:55;;;;;;;;;;;8.70;99.90;;;;;;5057391;28;19932;-68
2022/11/14 14:11:32;;;;;;;;;;;8.60;99.90;;;;;;5074521;28;19929;-69
2022/11/14 14:14:16;;;;;;;;;;;8.60;99.90;;;;;;5061726;28;19925;-70
2022/11/14 14:16:54;;;;;;;;;;;8.60;99.90;;;;;;5065284;28;19920;-69
2022/11/14 14:19:25;;;;;;;;;;;8.60;99.90;;;;;;5056477;28;19928;-69
2022/11/14 14:21:56;;;;;;;;;;;8.50;99.90;;;;;;5050661;28;19927;-69
2022/11/14 14:24:30;;;;;;;;;;;8.60;99.90;;;;;;5049813;28;20319;-69
2022/11/14 14:27:05;;;;;;;;;;;8.50;99.90;;;;;;5050166;28;19978;-69
2022/11/14 14:29:50;;;;;;;;;;;8.50;99.90;;;;;;5047955;28;19960;-69
2022/11/14 14:32:17;;;;;;;;;;;8.40;99.90;;;;;;5035704;28;19940;-69
2022/11/14 14:34:43;;;;;;;;;;;8.40;99.90;;;;;;5051786;28;19927;-69
2022/11/14 14:37:19;;;;;;;;;;;8.40;99.90;;;;;;5052754;28;19932;-69
2022/11/14 14:39:58;;;;;;;;;;;8.30;99.90;;;;;;5050813;28;19921;-69
2022/11/14 14:42:25;;;;;;;;;;;8.30;99.90;;;;;;5054400;28;20367;-69
2022/11/14 14:44:50;;;;;;;;;;;8.30;99.90;;;;;;5053776;28;20331;-69
2022/11/14 14:47:31;;;;;;;;;;;8.30;99.90;;;;;;5052173;28;19968;-71
2022/11/14 14:50:05;;;;;;;;;;;8.20;99.90;;;;;;5050303;28;20019;-71
2022/11/14 14:52:32;;;;;;;;;;;8.20;99.90;;;;;;5039624;28;19925;-70
2022/11/14 14:55:01;;;;;;;;;;;8.20;99.90;;;;;;5067595;28;20385;-70